map of KRK home
KRK - Airport
Location
City:  Kraków, Malopolskie, Poland
Name:John Paul II International Airport
Old (Alt.):Balice
ICAO:EPKK
IATA:KRK

Details
Type:Airport (Aerodrome, Airfield)
Use:Public/Civil, International (customs port of entry)
Latitude:50°04'40"N (50.077731)
Longitude:19°47'05"E (19.784836)
Datum:WGS 1984
Elevation:791 ft (241 m)
Variation:5.20°E (WMM2015 magnetic declination)
0.12° annual change
Runways:1
Longest:8366 × 197 ft (2550 × 60 m), paved

Time
Time Zone:UTC+1 (DST+2)
Local Time:

Weather
METAR:EPKK 131630Z VRB02KT 9999 SCT045 01/M03 Q1013
TAF:EPKK 131130Z 1312/1412 VRB02KT CAVOK PROB30
TEMPO 1321/1406 3000 BR
BECMG 1406/1409 24012KT PROB30
TEMPO 1409/1412 25015G25KT BKN020CB

Related Locations
Nearby:
Farthest:CHT: 11558 mi / 18601 km
Waitangi [Tuuta], CIT, NZ

Find:

   beyond  
but within

Other Information
Maps:
NOTAMs:
Links:
Sources:

  
flag of Poland
flag of Malopolskie
flag of Kraków
  

Sectional Chart

Flight Planning
at skyvector.com

Satellite Image

Google Maps Satellite view

 

Copyright © 2004-2017 Karl L. Swartz. All rights reserved.
The Great Circle Mapper name and logo are trademarks of the Great Circle Mapper.
All other trademarks mentioned herein belong to their respective owners.
Please see credits for attibutions and further copyright information.

  Follow gcmap on Facebook Follow gcmap on Twitter Follow gcmap on Google+ GCmap on LinkedIn

hCard Microformat

Geo Microformat